Aviation Digital Data Service (ADDS)

Output produced by METARs form (0559 UTC 29 July 2016)
found at http://aviationweather.gov/adds/metars/
 
KATL 290520Z 2906/3012 26006KT P6SM FEW080 BKN250 
     FM291200 26005KT P6SM BKN015 
     FM291500 28008KT P6SM SCT035 
     FM291800 27010KT P6SM SCT050 
     PROB30 2919/2923 6SM -TSRA BKN035CB 
     FM300100 26006KT P6SM SCT070